»·PEaware :: N4126A KSNA-KSNA

N4126A :: KSNA-KSNA

FLIGHT INFORMATION

Flight Status: Arrived
Operator: Privately registered:
United States
More flights under this callsign
Pilot: Jeff C. (17116)
Aircraft: Unknown
(B407)
More flights by this aircraft type
Origin: KSNA John Wayne-Orange Co
United States
Destination: KSNA John Wayne-Orange Co
United States
More flights between these airports :: More routes between these airports
Route: +
File this flight plan on PilotEdge
Remarks:
Altitude:
(Current/Filed)
0ft
Speed:
(Current/Filed)
0kts
Departed: 14-Apr-18 09:10 PM
Arrived: 14-Apr-18 10:09 PM
Distance/Time
Traveled:
0nm/0:59
Distance/Time
To Go:
Arrived

Flight Plot

Page will automatically refresh every two minutes.


Map Options




Map Legend


Flown Route
Filed Route
Departure Airport
Arrival Airport
Navaid (VOR, NDB)
Fix

Horizontal Profiles

Position Reports

Time Latitude Longitude Heading Altitude Ground
Speed
14-Apr-18 21:08 33.668177 -117.881114 319 448ft 74kts
14-Apr-18 21:09 33.673161 -117.859978 118 585ft 106kts
14-Apr-18 21:10 33.672150 -117.824682 83 791ft 100kts
14-Apr-18 21:11 33.673695 -117.790927 85 1194ft 108kts
14-Apr-18 21:12 33.675139 -117.753664 90 1336ft 113kts
14-Apr-18 21:13 33.673026 -117.716624 103 1569ft 109kts
14-Apr-18 21:14 33.662874 -117.683779 170 1672ft 110kts
14-Apr-18 21:15 33.665453 -117.711739 302 1609ft 113kts
14-Apr-18 21:16 33.684682 -117.740030 356 1615ft 114kts
14-Apr-18 21:17 33.681516 -117.710708 124 1744ft 113kts
14-Apr-18 21:18 33.661944 -117.683148 187 1670ft 109kts
14-Apr-18 21:19 33.665581 -117.713074 300 1719ft 112kts
14-Apr-18 21:20 33.687867 -117.736334 17 1655ft 117kts
14-Apr-18 21:21 33.681756 -117.704926 121 1694ft 116kts
14-Apr-18 21:22 33.660654 -117.687643 238 1709ft 105kts
14-Apr-18 21:23 33.670223 -117.721209 299 1701ft 113kts
14-Apr-18 21:24 33.674072 -117.755391 247 1758ft 110kts
14-Apr-18 21:25 33.652272 -117.783289 214 1228ft 119kts
14-Apr-18 21:26 33.626133 -117.803993 201 1117ft 108kts
14-Apr-18 21:27 33.600736 -117.818180 217 1331ft 119kts
14-Apr-18 21:28 33.580382 -117.848838 274 335ft 123kts
14-Apr-18 21:29 33.594035 -117.884199 292 198ft 113kts
14-Apr-18 21:30 33.604184 -117.918399 287 394ft 109kts
14-Apr-18 21:31 33.621377 -117.947853 312 598ft 95kts
14-Apr-18 21:32 33.638865 -117.972696 307 1180ft 102kts
14-Apr-18 21:33 33.657944 -117.997353 313 1637ft 109kts
14-Apr-18 21:34 33.683575 -118.011190 349 1994ft 109kts
14-Apr-18 21:35 33.712264 -118.026183 312 1535ft 105kts
14-Apr-18 21:36 33.731549 -118.047232 311 1572ft 103kts
14-Apr-18 21:37 33.751936 -118.071008 314 1550ft 103kts
14-Apr-18 21:38 33.771289 -118.096191 311 1091ft 95kts
14-Apr-18 21:39 33.789940 -118.118065 314 605ft 98kts
14-Apr-18 21:40 33.809053 -118.140828 312 111ft 89kts
14-Apr-18 21:41 33.813036 -118.149292 246 41ft 7kts
14-Apr-18 21:42 33.812356 -118.149484 182 37ft 0kts
14-Apr-18 21:43 33.812758 -118.149315 0 39ft 0kts
14-Apr-18 21:44 33.812792 -118.149262 0 37ft 0kts
14-Apr-18 21:45 33.812792 -118.149262 359 37ft 0kts
14-Apr-18 21:46 33.813094 -118.152041 271 91ft 77kts
14-Apr-18 21:47 33.814118 -118.188142 263 915ft 117kts
14-Apr-18 21:48 33.788124 -118.205853 180 1218ft 129kts
14-Apr-18 21:49 33.759766 -118.182159 108 1241ft 133kts
14-Apr-18 21:50 33.743546 -118.144289 120 1557ft 123kts
14-Apr-18 21:51 33.731441 -118.106943 111 2177ft 121kts
14-Apr-18 21:52 33.719102 -118.068211 108 2573ft 132kts
14-Apr-18 21:53 33.704136 -118.026826 113 2308ft 134kts
14-Apr-18 21:54 33.702770 -117.991981 39 3540ft 109kts
14-Apr-18 21:55 33.725434 -118.005616 311 3987ft 124kts
14-Apr-18 21:56 33.753643 -118.029825 322 4009ft 125kts
14-Apr-18 21:57 33.781755 -118.053530 325 4048ft 124kts
14-Apr-18 21:58 33.803023 -118.034771 88 4096ft 133kts
14-Apr-18 21:59 33.800904 -117.990144 115 4049ft 136kts
14-Apr-18 22:00 33.789049 -117.949326 90 4081ft 134kts
14-Apr-18 22:01 33.786137 -117.904661 93 4076ft 135kts
14-Apr-18 22:02 33.787713 -117.859524 85 2753ft 135kts
14-Apr-18 22:03 33.788007 -117.817914 111 2134ft 112kts
14-Apr-18 22:04 33.763535 -117.812108 209 1781ft 93kts
14-Apr-18 22:05 33.740177 -117.827778 204 1358ft 101kts
14-Apr-18 22:06 33.715605 -117.843777 206 837ft 98kts
14-Apr-18 22:07 33.692545 -117.858153 207 319ft 91kts
14-Apr-18 22:08 33.678061 -117.867382 229 68ft 22kts
14-Apr-18 22:09 33.676559 -117.869782 212 60ft 0kts
14-Apr-18 22:10 33.668479 -117.875605 220 517ft 59kts
14-Apr-18 22:11 33.678433 -117.871256 153 324ft 62kts
14-Apr-18 22:12 33.672188 -117.873629 235 161ft 10kts
14-Apr-18 22:13 33.671810 -117.874935 24 92ft 0kts
14-Apr-18 22:14 33.671810 -117.874904 21 62ft 0kts
14-Apr-18 22:15 33.671810 -117.874903 20 60ft 0kts
14-Apr-18 22:16 33.671810 -117.874903 20 60ft 0kts
14-Apr-18 22:17 33.671810 -117.874903 20 60ft 0kts

Navigation Log

Ident Type
Flight plan parsing failed, navigation log unavailable